Weather History for Perryton, TX

Change the Weather History Date:

Saturday, May 18, 2013

  Actual Average Record
Temperature  
Mean Temperature 84 °F -  
Max Temperature 102 °F 80 °F 102 °F (2013)
Min Temperature 65 °F 50 °F 37 °F (1976)
Cooling Degree Days 18    
Growing Degree Days 34 (Base 50)    
Moisture  
Dew Point 48 °F    
Average Humidity 46    
Maximum Humidity 96    
Minimum Humidity 5    
Precipitation  
Precipitation 0.00 in - - ()
Sea Level Pressure  
Sea Level Pressure 29.74 in    
Wind  
Wind Speed 15 mph (South)    
Max Wind Speed 25 mph    
Max Gust Speed 58 mph    
Visibility 8 miles    
Events      
Averages and records for this station are not official NWS values.
T = Trace of Precipitation, MM = Missing Value Source: NWS Daily Summary

Daily Weather History Graph

Daily Weather History Graph

Search for Another Location

Airport:

Trip Planner

Search our weather history database for the weather conditions in past years. The results will help you decide how hot, cold, wet, or windy it might be!

Date:

Astronomy

May. 18, 2013 Rise Set
Actual Time 6:33 AM CDT 8:45 PM CDT
Civil Twilight 6:04 AM CDT 9:14 PM CDT
Nautical Twilight 5:29 AM CDT 9:50 PM CDT
Astronomical Twilight 4:50 AM CDT 10:28 PM CDT
Moon 2:02 PM CDT (5/18) 2:15 AM CDT (5/18)
Length of Visible Light 15h 09m
Length of Day
14h 11m
First Quarter, 55% of the Moon is Illuminated
May 18
First Quarter
May 24
Full
May 31
Last Quarter
Jun 8
New
Jun 16
First Quarter

Hourly Weather History & Observations

Time (CDT) Temp. Heat Index Dew Point Humidity Pressure Visibility Wind Dir Wind Speed Gust Speed Precip Events Conditions
12:15 AM 73.0 °F - 68.5 °F 86% 29.84 in 5.0 mi SSE 19.6 mph 26.5 mph N/A   Overcast
12:35 AM 73.6 °F - 68.9 °F 85% 29.84 in 5.0 mi SSE 20.7 mph 29.9 mph N/A   Overcast
12:55 AM 73.4 °F - 68.5 °F 85% 29.84 in 5.0 mi SSE 20.7 mph - N/A   Overcast
1:15 AM 72.3 °F - 68.0 °F 86% 29.84 in 5.0 mi SSE 17.3 mph 23.0 mph N/A   Scattered Clouds
1:35 AM 71.6 °F - 68.0 °F 88% 29.83 in 5.0 mi South 15.0 mph - N/A   Clear
1:55 AM 70.7 °F - 67.5 °F 89% 29.81 in 5.0 mi SSE 13.8 mph - N/A   Clear
2:15 AM 70.7 °F - 67.5 °F 89% 29.82 in 5.0 mi South 15.0 mph - N/A   Clear
2:35 AM 69.8 °F - 67.3 °F 92% 29.80 in 5.0 mi SSE 12.7 mph - N/A   Clear
2:55 AM 69.3 °F - 67.3 °F 93% 29.80 in 4.0 mi SSE 12.7 mph - N/A   Clear
3:15 AM 69.1 °F - 67.1 °F 93% 29.80 in 4.0 mi SSE 10.4 mph - N/A   Clear
3:35 AM 68.5 °F - 66.7 °F 94% 29.80 in 3.0 mi SSE 5.8 mph - N/A   Clear
3:55 AM 68.0 °F - 66.6 °F 95% 29.80 in 3.0 mi SE 9.2 mph - N/A   Clear
4:15 AM 68.0 °F - 66.6 °F 95% 29.80 in 2.5 mi SSE 13.8 mph - N/A   Clear
4:35 AM 67.8 °F - 66.6 °F 96% 29.80 in 2.5 mi SSE 12.7 mph - N/A   Clear
4:55 AM 67.8 °F - 66.2 °F 95% 29.80 in 3.0 mi SSE 12.7 mph - N/A   Clear
5:15 AM 67.6 °F - 66.2 °F 95% 29.79 in 3.0 mi SSE 11.5 mph - N/A   Clear
5:35 AM 67.3 °F - 65.7 °F 95% 29.79 in 3.0 mi SSE 8.1 mph - N/A   Clear
5:55 AM 66.4 °F - 64.9 °F 95% 29.79 in 3.0 mi SE 9.2 mph - N/A   Clear
6:15 AM 65.8 °F - 64.6 °F 96% 29.78 in 2.5 mi SE 6.9 mph - N/A   Clear
6:35 AM 65.8 °F - 64.6 °F 96% 29.78 in 3.0 mi SE 5.8 mph - N/A   Clear
6:55 AM 65.8 °F - 64.4 °F 95% 29.78 in 2.5 mi SE 4.6 mph - N/A   Clear
7:15 AM 65.8 °F - 64.2 °F 94% 29.78 in 2.5 mi South 3.5 mph - N/A   Clear
7:35 AM 66.6 °F - 64.6 °F 93% 29.78 in 4.0 mi Calm Calm - N/A   Clear
7:55 AM 67.1 °F - 64.6 °F 92% 29.79 in 4.0 mi ESE 6.9 mph - N/A   Clear
8:15 AM 71.1 °F - 62.2 °F 74% 29.79 in 10.0 mi SW 4.6 mph - N/A   Clear
8:35 AM 73.2 °F - 64.2 °F 73% 29.80 in 10.0 mi NNE 4.6 mph - N/A   Clear
8:55 AM 77.7 °F - 57.4 °F 49% 29.80 in 10.0 mi South 9.2 mph - N/A   Clear
9:15 AM 80.2 °F 80.0 °F 53.2 °F 39% 29.80 in 10.0 mi SSE 16.1 mph - N/A   Clear
9:35 AM 82.6 °F - 48.2 °F 30% 29.80 in 10.0 mi South 21.9 mph 28.8 mph N/A   Clear
9:55 AM 84.7 °F - 49.1 °F 29% 29.80 in 10.0 mi South 23.0 mph 34.5 mph N/A   Clear
10:15 AM 88.0 °F - 48.4 °F 25% 29.79 in 10.0 mi South 24.2 mph 32.2 mph N/A   Clear
10:35 AM 88.9 °F - 45.3 °F 22% 29.78 in 10.0 mi South 25.3 mph 29.9 mph N/A   Clear
10:55 AM 89.8 °F - 45.1 °F 21% 29.79 in 10.0 mi South 24.2 mph 32.2 mph N/A   Clear
11:15 AM 90.7 °F - 45.1 °F 21% 29.78 in 7.0 mi South 23.0 mph 33.4 mph N/A   Clear
11:35 AM 91.9 °F - 45.9 °F 20% 29.78 in 10.0 mi South 21.9 mph 27.6 mph N/A   Clear
11:55 AM 93.2 °F - 45.0 °F 19% 29.77 in 10.0 mi South 23.0 mph 26.5 mph N/A   Clear
12:15 PM 95.0 °F - 42.4 °F 16% 29.76 in 10.0 mi SSW 21.9 mph 28.8 mph N/A   Clear
12:35 PM 96.3 °F - 39.2 °F 14% 29.76 in 10.0 mi South 17.3 mph 34.5 mph N/A   Clear
12:55 PM 97.9 °F - 36.5 °F 12% 29.75 in 10.0 mi SSW 20.7 mph 25.3 mph N/A   Clear
1:15 PM 99.9 °F - 27.5 °F 8% 29.73 in 10.0 mi SSW 20.7 mph 31.1 mph N/A   Clear
1:35 PM 100.4 °F - 25.0 °F 7% 29.72 in 10.0 mi SSW 20.7 mph 32.2 mph N/A   Clear
2:15 PM 101.3 °F - 25.2 °F 7% 29.71 in 10.0 mi SSW 17.3 mph 33.4 mph N/A   Clear
2:35 PM 102.0 °F - 24.8 °F 7% 29.70 in 10.0 mi SSW 17.3 mph 26.5 mph N/A   Clear
2:55 PM 101.1 °F - 24.3 °F 7% 29.69 in 10.0 mi South 17.3 mph 26.5 mph N/A   Clear
3:15 PM 102.2 °F - 20.8 °F 5% 29.68 in 10.0 mi SW 21.9 mph 27.6 mph N/A   Clear
3:35 PM 99.9 °F - 20.7 °F 6% 29.68 in 10.0 mi WSW 16.1 mph 29.9 mph N/A   Clear
3:55 PM 98.8 °F - 23.4 °F 7% 29.68 in 10.0 mi WSW 21.9 mph 28.8 mph N/A   Clear
4:15 PM 95.7 °F - 24.8 °F 8% 29.68 in 10.0 mi WSW 16.1 mph - N/A   Clear
4:35 PM 94.8 °F - 25.2 °F 8% 29.69 in 7.0 mi SW 13.8 mph 48.3 mph N/A   Clear
4:55 PM 95.0 °F - 27.1 °F 9% 29.67 in 10.0 mi SSW 10.4 mph - N/A   Clear
5:15 PM 93.6 °F - 28.0 °F 10% 29.68 in 10.0 mi SSW 19.6 mph 29.9 mph N/A   Clear
5:55 PM 92.3 °F - 30.7 °F 11% 29.63 in 10.0 mi SSW 4.6 mph - N/A   Scattered Clouds
6:15 PM 92.1 °F - 31.8 °F 12% 29.64 in 4.0 mi WSW 18.4 mph 57.5 mph N/A   Scattered Clouds
6:35 PM 94.1 °F - 33.4 °F 12% 29.62 in 10.0 mi South 18.4 mph 28.8 mph N/A   Clear
6:55 PM 93.9 °F - 37.9 °F 14% 29.62 in 10.0 mi South 16.1 mph 26.5 mph N/A   Clear
7:15 PM 94.5 °F - 33.1 °F 11% 29.62 in 10.0 mi South 18.4 mph 26.5 mph N/A   Clear
7:35 PM 93.2 °F - 33.1 °F 12% 29.61 in 10.0 mi South 15.0 mph - N/A   Clear
7:55 PM 90.9 °F - 33.3 °F 13% 29.60 in 10.0 mi South 12.7 mph - N/A   Clear
8:15 PM 89.8 °F - 33.8 °F 14% 29.59 in 10.0 mi South 15.0 mph - N/A   Clear
8:35 PM 88.3 °F - 35.2 °F 15% 29.60 in 10.0 mi South 11.5 mph - N/A   Clear
8:55 PM 85.6 °F - 36.3 °F 17% 29.61 in 10.0 mi WSW 16.1 mph 23.0 mph N/A   Clear
9:15 PM 86.4 °F - 29.7 °F 13% 29.62 in 10.0 mi South 10.4 mph - N/A   Clear
9:35 PM 86.0 °F - 25.7 °F 11% 29.64 in 10.0 mi South 9.2 mph 16.1 mph N/A   Clear
9:55 PM 81.5 °F - 47.5 °F 30% 29.65 in 10.0 mi SE 23.0 mph 31.1 mph N/A   Clear
10:15 PM 78.8 °F - 48.2 °F 34% 29.66 in 10.0 mi SE 17.3 mph 24.2 mph N/A   Clear
10:35 PM 77.7 °F - 48.4 °F 36% 29.67 in 10.0 mi SSE 17.3 mph - N/A   Clear
11:15 PM 76.1 °F - 49.1 °F 39% 29.70 in 10.0 mi South 12.7 mph - N/A   Clear
11:35 PM 76.1 °F - 48.9 °F 38% 29.71 in 10.0 mi SSE 13.8 mph - N/A   Clear